Time;durP1;ratioP1;P1;durP2;ratioP2;P2;SDS_P1;SDS_P2;PMS_P1;PMS_P2;Temp;Humidity;BMP_temperature;BMP_pressure;BME280_temperature;BME280_humidity;BME280_pressure;Samples;Min_cycle;Max_cycle;Signal;HPM_P1;HPM_P2
2022/09/07 00:00:36;;;;;;;3.00;0.90;;;;;;;;;;4992785;28;20026;-66
2022/09/07 00:03:04;;;;;;;2.10;0.47;;;;;;;;;;4993513;28;20058;-67
2022/09/07 00:05:32;;;;;;;2.90;0.80;;;;;;;;;;4996355;28;20410;-66
2022/09/07 00:07:59;;;;;;;2.67;0.50;;;;;;;;;;4996439;28;20030;-66
2022/09/07 00:10:27;;;;;;;2.08;0.50;;;;;;;;;;4996273;28;20050;-65
2022/09/07 00:12:54;;;;;;;1.80;0.52;;;;;;;;;;4996071;28;20088;-66
2022/09/07 00:15:22;;;;;;;4.75;0.70;;;;;;;;;;4996346;28;20505;-66
2022/09/07 00:17:49;;;;;;;3.22;0.77;;;;;;;;;;4996108;28;20084;-67
2022/09/07 00:20:16;;;;;;;3.42;1.23;;;;;;;;;;4996222;28;20092;-66
2022/09/07 00:22:45;;;;;;;5.20;1.70;;;;;;;;;;4995785;28;20110;-65
2022/09/07 00:25:12;;;;;;;3.67;1.60;;;;;;;;;;4995726;28;20026;-67
2022/09/07 00:27:39;;;;;;;4.50;1.58;;;;;;;;;;4995698;28;20023;-67
2022/09/07 00:30:07;;;;;;;5.20;1.70;;;;;;;;;;4994593;28;20023;-66
2022/09/07 00:32:34;;;;;;;4.78;1.27;;;;;;;;;;4995940;28;20072;-66
2022/09/07 00:35:01;;;;;;;4.03;1.20;;;;;;;;;;4995793;28;20026;-66
2022/09/07 00:37:28;;;;;;;4.75;1.20;;;;;;;;;;4995955;28;20027;-65
2022/09/07 00:39:55;;;;;;;3.00;0.82;;;;;;;;;;4996002;28;20018;-65
2022/09/07 00:42:22;;;;;;;4.07;0.77;;;;;;;;;;4995639;28;20072;-66
2022/09/07 00:44:59;;;;;;;2.63;0.60;;;;;;;;;;4994309;28;20046;-66
2022/09/07 00:47:26;;;;;;;1.08;0.57;;;;;;;;;;4995592;28;20140;-66
2022/09/07 00:49:56;;;;;;;1.92;0.57;;;;;;;;;;4995470;28;20041;-66
2022/09/07 00:52:24;;;;;;;1.52;0.60;;;;;;;;;;4994258;28;20085;-65
2022/09/07 00:54:54;;;;;;;3.38;0.80;;;;;;;;;;4995683;28;20034;-66
2022/09/07 00:57:21;;;;;;;3.45;0.82;;;;;;;;;;4995508;28;20104;-67
2022/09/07 00:59:50;;;;;;;3.53;0.88;;;;;;;;;;4995230;28;20034;-66
2022/09/07 01:02:17;;;;;;;2.55;0.90;;;;;;;;;;4995242;28;20022;-67
2022/09/07 01:04:56;;;;;;;1.95;0.65;;;;;;;;;;4993771;28;20030;-67
2022/09/07 01:07:23;;;;;;;4.15;0.70;;;;;;;;;;4995366;28;20458;-67
2022/09/07 01:09:50;;;;;;;3.40;1.15;;;;;;;;;;4995116;28;20057;-67
2022/09/07 01:12:17;;;;;;;3.60;0.88;;;;;;;;;;4995438;28;20026;-67
2022/09/07 01:14:47;;;;;;;3.85;1.00;;;;;;;;;;4993102;28;20034;-67
2022/09/07 01:17:17;;;;;;;2.85;1.00;;;;;;;;;;4993296;28;20101;-66
2022/09/07 01:19:57;;;;;;;3.72;1.08;;;;;;;;;;4992568;28;20421;-66
2022/09/07 01:22:54;;;;;;;4.05;0.90;;;;;;;;;;4995109;28;20031;-66
2022/09/07 01:25:27;;;;;;;3.35;0.80;;;;;;;;;;4976454;28;20176;-66
2022/09/07 01:27:58;;;;;;;2.88;0.85;;;;;;;;;;4994972;28;20030;-65
2022/09/07 01:30:25;;;;;;;2.95;1.08;;;;;;;;;;4994790;28;20101;-66
2022/09/07 01:33:10;;;;;;;3.22;1.45;;;;;;;;;;4993480;28;20026;-66
2022/09/07 01:35:37;;;;;;;6.80;1.55;;;;;;;;;;4994475;28;20077;-67
2022/09/07 01:38:07;;;;;;;3.22;0.98;;;;;;;;;;4994738;28;20022;-68
2022/09/07 01:40:44;;;;;;;3.80;1.10;;;;;;;;;;4994519;28;20030;-67
2022/09/07 01:43:15;;;;;;;3.65;1.10;;;;;;;;;;4994559;28;20037;-67
2022/09/07 01:45:43;;;;;;;5.72;1.30;;;;;;;;;;4994739;28;20034;-66
2022/09/07 01:48:14;;;;;;;5.32;1.15;;;;;;;;;;4994511;28;20367;-67
2022/09/07 01:50:46;;;;;;;2.60;0.95;;;;;;;;;;4994685;28;20426;-66
2022/09/07 01:53:24;;;;;;;4.40;1.10;;;;;;;;;;4994681;28;20031;-66
2022/09/07 01:56:00;;;;;;;2.90;0.90;;;;;;;;;;4993357;28;20109;-67
2022/09/07 01:58:28;;;;;;;3.78;1.00;;;;;;;;;;4992853;28;20045;-68
2022/09/07 02:01:10;;;;;;;3.08;1.05;;;;;;;;;;4994220;28;20027;-67
2022/09/07 02:03:42;;;;;;;4.68;1.58;;;;;;;;;;4994157;28;20030;-67
2022/09/07 02:06:10;;;;;;;4.03;0.80;;;;;;;;;;4993720;28;20116;-67
2022/09/07 02:09:12;;;;;;;4.60;0.90;;;;;;;;;;4991216;28;20030;-67
2022/09/07 02:11:41;;;;;;;4.90;0.90;;;;;;;;;;4971387;28;20494;-67
2022/09/07 02:14:15;;;;;;;3.63;0.88;;;;;;;;;;4990034;28;20065;-66
2022/09/07 02:16:49;;;;;;;6.40;1.05;;;;;;;;;;4994092;28;20023;-67
2022/09/07 02:19:17;;;;;;;3.50;0.60;;;;;;;;;;4994133;28;20030;-66
2022/09/07 02:21:48;;;;;;;2.97;0.80;;;;;;;;;;4994360;28;20022;-66
2022/09/07 02:24:18;;;;;;;3.33;0.60;;;;;;;;;;4992712;28;20398;-66
2022/09/07 02:26:46;;;;;;;2.58;0.60;;;;;;;;;;4993402;28;20019;-66
2022/09/07 02:29:13;;;;;;;3.95;0.80;;;;;;;;;;4993850;28;20379;-66
2022/09/07 02:31:41;;;;;;;4.50;0.70;;;;;;;;;;4993948;28;20030;-66
2022/09/07 02:34:08;;;;;;;1.92;0.50;;;;;;;;;;4993600;28;20030;-66
2022/09/07 02:36:40;;;;;;;3.10;0.90;;;;;;;;;;4993957;28;20475;-66
2022/09/07 02:39:07;;;;;;;2.75;0.85;;;;;;;;;;4993732;28;20054;-66
2022/09/07 02:41:39;;;;;;;1.83;0.30;;;;;;;;;;4992435;28;20030;-67
2022/09/07 02:44:09;;;;;;;1.08;0.30;;;;;;;;;;4993653;28;20394;-67
2022/09/07 02:46:54;;;;;;;1.58;0.55;;;;;;;;;;4993822;28;20085;-66
2022/09/07 02:49:24;;;;;;;1.73;0.28;;;;;;;;;;4991878;28;20129;-66
2022/09/07 02:51:51;;;;;;;3.40;0.57;;;;;;;;;;4991023;28;20430;-66
2022/09/07 02:54:21;;;;;;;1.60;0.40;;;;;;;;;;4993574;28;20022;-66
2022/09/07 02:56:51;;;;;;;2.22;0.40;;;;;;;;;;4993505;28;20029;-66
2022/09/07 02:59:18;;;;;;;2.28;0.50;;;;;;;;;;4992116;28;20030;-66
2022/09/07 03:01:51;;;;;;;2.10;0.45;;;;;;;;;;4993511;28;20031;-66
2022/09/07 03:04:25;;;;;;;2.08;0.60;;;;;;;;;;4993242;28;20023;-66
2022/09/07 03:07:04;;;;;;;2.60;0.50;;;;;;;;;;4993381;28;20050;-65
2022/09/07 03:09:35;;;;;;;1.98;0.25;;;;;;;;;;4993528;28;20026;-66
2022/09/07 03:12:04;;;;;;;3.63;0.35;;;;;;;;;;4993481;28;20044;-67
2022/09/07 03:14:35;;;;;;;2.85;0.50;;;;;;;;;;4993377;28;20098;-66
2022/09/07 03:17:02;;;;;;;2.47;0.30;;;;;;;;;;4991856;28;20085;-67
2022/09/07 03:19:29;;;;;;;3.05;0.38;;;;;;;;;;4992446;28;20084;-66
2022/09/07 03:21:56;;;;;;;4.88;0.40;;;;;;;;;;4993249;28;20022;-66
2022/09/07 03:24:23;;;;;;;2.38;0.40;;;;;;;;;;4993165;28;20101;-67
2022/09/07 03:26:51;;;;;;;1.65;0.50;;;;;;;;;;4993309;28;20019;-67
2022/09/07 03:29:18;;;;;;;2.92;0.50;;;;;;;;;;4993243;28;20030;-67
2022/09/07 03:31:46;;;;;;;1.40;0.30;;;;;;;;;;4993340;28;20029;-67
2022/09/07 03:34:13;;;;;;;2.55;0.40;;;;;;;;;;4993287;28;20054;-65
2022/09/07 03:36:40;;;;;;;4.10;0.68;;;;;;;;;;4991912;28;20033;-67
2022/09/07 03:39:07;;;;;;;2.17;0.35;;;;;;;;;;4995361;28;20391;-67
2022/09/07 03:41:35;;;;;;;2.53;0.28;;;;;;;;;;4996934;28;20030;-66
2022/09/07 03:44:05;;;;;;;2.30;0.40;;;;;;;;;;4996749;28;20026;-67
2022/09/07 03:46:32;;;;;;;;;;;;;;;;;;4997214;28;20027;-67
2022/09/07 03:48:59;;;;;;;4.30;0.65;;;;;;;;;;4996845;28;19966;-66
2022/09/07 03:51:26;;;;;;;3.20;0.60;;;;;;;;;;4996836;28;20409;-66
2022/09/07 03:53:54;;;;;;;2.90;0.50;;;;;;;;;;4996692;28;20018;-66
2022/09/07 03:56:22;;;;;;;2.42;0.40;;;;;;;;;;4996726;28;20479;-67
2022/09/07 03:58:50;;;;;;;4.63;0.88;;;;;;;;;;4996419;28;20036;-67
2022/09/07 04:01:19;;;;;;;1.10;0.20;;;;;;;;;;4996249;28;20026;-66
2022/09/07 04:03:46;;;;;;;4.60;0.43;;;;;;;;;;4996751;28;20101;-67
2022/09/07 04:06:14;;;;;;;1.95;0.47;;;;;;;;;;4996189;28;20126;-66
2022/09/07 04:08:41;;;;;;;3.28;0.80;;;;;;;;;;4995241;28;20023;-68
2022/09/07 04:11:11;;;;;;;2.40;0.40;;;;;;;;;;4994946;28;20026;-67
2022/09/07 04:13:38;;;;;;;2.10;0.65;;;;;;;;;;4996628;28;20121;-67
2022/09/07 04:16:13;;;;;;;3.17;0.63;;;;;;;;;;4996545;28;20101;-67
2022/09/07 04:18:40;;;;;;;3.05;0.50;;;;;;;;;;4996279;28;20030;-66
2022/09/07 04:21:08;;;;;;;2.58;0.40;;;;;;;;;;4994919;28;20030;-68
2022/09/07 04:23:37;;;;;;;4.40;0.50;;;;;;;;;;4996106;28;20022;-67
2022/09/07 04:26:04;;;;;;;3.28;0.50;;;;;;;;;;4995071;28;20435;-67
2022/09/07 04:28:31;;;;;;;1.55;0.30;;;;;;;;;;4994873;28;20026;-66
2022/09/07 04:31:02;;;;;;;2.92;0.38;;;;;;;;;;4995982;28;20030;-66
2022/09/07 04:33:28;;;;;;;;;;;;;;;;;;4996418;28;20092;-67
2022/09/07 04:35:55;;;;;;;1.95;0.50;;;;;;;;;;4994626;28;19930;-68
2022/09/07 04:38:22;;;;;;;3.67;0.40;;;;;;;;;;4995872;28;20029;-67
2022/09/07 04:40:49;;;;;;;1.52;0.45;;;;;;;;;;4995288;28;20494;-65
2022/09/07 04:43:17;;;;;;;3.03;0.40;;;;;;;;;;4993660;28;20037;-67
2022/09/07 04:45:44;;;;;;;3.40;0.60;;;;;;;;;;4995696;28;20403;-66
2022/09/07 04:48:11;;;;;;;1.40;0.38;;;;;;;;;;4995605;28;20269;-67
2022/09/07 04:50:38;;;;;;;2.80;0.40;;;;;;;;;;4995311;28;20102;-67
2022/09/07 04:53:05;;;;;;;1.77;0.25;;;;;;;;;;4994605;28;20026;-67
2022/09/07 04:55:32;;;;;;;1.65;0.30;;;;;;;;;;4994868;28;20023;-68
2022/09/07 04:57:59;;;;;;;2.90;0.55;;;;;;;;;;4994363;28;20057;-67
2022/09/07 05:00:27;;;;;;;3.38;0.30;;;;;;;;;;4995610;28;20093;-68
2022/09/07 05:02:54;;;;;;;1.67;0.40;;;;;;;;;;4995266;28;20090;-67
2022/09/07 05:05:21;;;;;;;2.50;0.30;;;;;;;;;;4995235;28;20069;-67
2022/09/07 05:07:48;;;;;;;2.05;0.57;;;;;;;;;;4994027;28;20438;-67
2022/09/07 05:10:15;;;;;;;2.25;0.40;;;;;;;;;;4993996;28;20085;-67
2022/09/07 05:12:42;;;;;;;1.52;0.45;;;;;;;;;;4995308;28;20097;-67
2022/09/07 05:15:10;;;;;;;3.58;0.50;;;;;;;;;;4995556;28;20327;-67
2022/09/07 05:17:37;;;;;;;4.57;0.50;;;;;;;;;;4993729;28;20018;-68
2022/09/07 05:20:04;;;;;;;2.40;0.40;;;;;;;;;;4995106;28;20019;-67
2022/09/07 05:22:34;;;;;;;2.47;0.40;;;;;;;;;;4993601;28;20085;-68
2022/09/07 05:25:01;;;;;;;3.70;0.52;;;;;;;;;;4995115;28;20022;-67
2022/09/07 05:27:28;;;;;;;3.78;0.80;;;;;;;;;;4993371;28;20022;-68
2022/09/07 05:29:55;;;;;;;2.08;0.30;;;;;;;;;;4992956;28;20029;-67
2022/09/07 05:32:22;;;;;;;3.40;0.55;;;;;;;;;;4994819;28;20034;-68
2022/09/07 05:34:49;;;;;;;2.97;0.50;;;;;;;;;;4994797;28;20482;-68
2022/09/07 05:37:17;;;;;;;1.85;0.47;;;;;;;;;;4994775;28;20030;-68
2022/09/07 05:39:44;;;;;;;1.95;0.40;;;;;;;;;;4994770;28;20101;-68
2022/09/07 05:42:11;;;;;;;2.67;0.40;;;;;;;;;;4994612;28;20104;-68
2022/09/07 05:44:38;;;;;;;1.77;0.30;;;;;;;;;;4994624;28;20387;-68
2022/09/07 05:47:05;;;;;;;1.73;0.40;;;;;;;;;;4994697;28;20015;-68
2022/09/07 05:49:32;;;;;;;3.38;0.50;;;;;;;;;;4993151;28;20027;-68
2022/09/07 05:52:00;;;;;;;2.05;0.40;;;;;;;;;;4994463;28;20050;-67
2022/09/07 05:54:27;;;;;;;2.67;0.95;;;;;;;;;;4994381;28;20027;-67
2022/09/07 05:56:54;;;;;;;2.22;0.50;;;;;;;;;;4993046;28;20438;-68
2022/09/07 05:59:21;;;;;;;2.85;0.47;;;;;;;;;;4994241;28;20026;-68
2022/09/07 06:01:48;;;;;;;1.63;0.60;;;;;;;;;;4993852;28;20523;-68
2022/09/07 06:04:15;;;;;;;2.10;0.52;;;;;;;;;;4994291;28;20033;-69
2022/09/07 06:06:42;;;;;;;1.38;0.40;;;;;;;;;;4994023;28;20517;-68
2022/09/07 06:09:11;;;;;;;3.28;0.50;;;;;;;;;;4994194;28;20022;-68
2022/09/07 06:11:38;;;;;;;1.98;0.40;;;;;;;;;;4992865;28;20019;-68
2022/09/07 06:14:05;;;;;;;3.28;0.50;;;;;;;;;;4994088;28;20034;-68
2022/09/07 06:16:36;;;;;;;2.80;0.55;;;;;;;;;;4994037;28;20062;-67
2022/09/07 06:19:07;;;;;;;1.92;0.28;;;;;;;;;;4993953;28;20073;-69
2022/09/07 06:21:38;;;;;;;1.83;0.30;;;;;;;;;;4993501;28;20018;-69
2022/09/07 06:24:05;;;;;;;1.67;0.60;;;;;;;;;;4992995;28;20022;-69
2022/09/07 06:26:33;;;;;;;2.75;0.40;;;;;;;;;;4992360;28;20082;-70
2022/09/07 06:29:02;;;;;;;2.42;0.30;;;;;;;;;;4993907;28;20037;-69
2022/09/07 06:31:29;;;;;;;2.65;0.30;;;;;;;;;;4993786;28;20383;-68
2022/09/07 06:33:57;;;;;;;1.27;0.32;;;;;;;;;;4992420;28;20026;-69
2022/09/07 06:36:28;;;;;;;3.28;0.60;;;;;;;;;;4993882;28;20029;-69
2022/09/07 06:38:57;;;;;;;2.63;0.30;;;;;;;;;;4993633;28;20026;-69
2022/09/07 06:41:28;;;;;;;2.45;0.50;;;;;;;;;;4993754;28;20405;-70
2022/09/07 06:43:56;;;;;;;2.58;0.32;;;;;;;;;;4993655;28;20030;-69
2022/09/07 06:46:24;;;;;;;3.55;0.70;;;;;;;;;;4992385;28;20050;-72
2022/09/07 06:48:54;;;;;;;1.73;0.40;;;;;;;;;;4992474;28;20442;-69
2022/09/07 06:51:25;;;;;;;2.90;0.40;;;;;;;;;;4991726;28;20105;-69
2022/09/07 06:53:55;;;;;;;4.38;0.40;;;;;;;;;;4990106;28;20050;-70
2022/09/07 06:56:23;;;;;;;2.30;0.87;;;;;;;;;;4991450;28;20022;-69
2022/09/07 06:58:57;;;;;;;1.85;0.30;;;;;;;;;;4991169;28;20283;-70
2022/09/07 07:01:25;;;;;;;1.60;0.30;;;;;;;;;;4989905;28;20026;-70
2022/09/07 07:03:53;;;;;;;3.28;0.57;;;;;;;;;;4989185;28;20034;-71
2022/09/07 07:06:20;;;;;;;2.42;0.40;;;;;;;;;;4992125;28;20042;-70
2022/09/07 07:08:47;;;;;;;2.50;0.60;;;;;;;;;;4992307;28;20018;-70
2022/09/07 07:11:15;;;;;;;1.80;0.30;;;;;;;;;;4992681;28;20022;-70
2022/09/07 07:13:46;;;;;;;2.95;0.55;;;;;;;;;;4997034;28;20423;-71
2022/09/07 07:16:14;;;;;;;2.47;0.88;;;;;;;;;;4995538;28;20033;-71
2022/09/07 07:18:42;;;;;;;2.15;0.40;;;;;;;;;;4995257;28;20073;-70
2022/09/07 07:21:13;;;;;;;2.78;0.50;;;;;;;;;;4995183;28;20575;-70
2022/09/07 07:23:40;;;;;;;2.60;0.40;;;;;;;;;;4994026;28;20022;-70
2022/09/07 07:26:10;;;;;;;2.60;0.45;;;;;;;;;;4995353;28;20023;-69
2022/09/07 07:28:37;;;;;;;6.05;0.63;;;;;;;;;;4995269;28;20033;-71
2022/09/07 07:31:05;;;;;;;4.00;0.70;;;;;;;;;;4996605;28;20387;-68
2022/09/07 07:33:33;;;;;;;1.23;0.30;;;;;;;;;;4997146;28;20059;-72
2022/09/07 07:36:26;;;;;;;3.50;0.40;;;;;;;;;;4997004;28;20031;-67
2022/09/07 07:38:55;;;;;;;3.45;0.65;;;;;;;;;;4996041;28;20052;-69
2022/09/07 07:41:25;;;;;;;2.33;0.50;;;;;;;;;;4997010;28;20146;-68
2022/09/07 07:43:57;;;;;;;2.63;0.52;;;;;;;;;;4996755;28;20026;-68
2022/09/07 07:46:24;;;;;;;3.05;0.82;;;;;;;;;;4996700;28;20034;-68
2022/09/07 07:48:52;;;;;;;3.67;0.50;;;;;;;;;;4996966;28;20046;-68
2022/09/07 07:51:19;;;;;;;3.35;0.60;;;;;;;;;;4995469;28;20034;-67
2022/09/07 07:53:46;;;;;;;4.28;0.55;;;;;;;;;;4993621;28;20089;-67
2022/09/07 07:56:14;;;;;;;2.97;0.60;;;;;;;;;;4994973;28;20022;-68
2022/09/07 07:58:44;;;;;;;3.55;0.98;;;;;;;;;;4994178;28;20045;-68
2022/09/07 08:01:12;;;;;;;3.63;1.08;;;;;;;;;;4996558;28;20022;-67
2022/09/07 08:03:40;;;;;;;3.70;0.82;;;;;;;;;;4995188;28;20058;-69
2022/09/07 08:06:12;;;;;;;4.90;0.60;;;;;;;;;;4996129;28;20046;-68
2022/09/07 08:08:39;;;;;;;3.58;0.52;;;;;;;;;;4996899;28;20053;-67
2022/09/07 08:11:08;;;;;;;4.68;0.77;;;;;;;;;;4995263;28;20124;-68
2022/09/07 08:13:36;;;;;;;6.28;0.80;;;;;;;;;;4996442;28;20076;-68
2022/09/07 08:16:04;;;;;;;2.97;0.50;;;;;;;;;;4996459;28;20149;-68
2022/09/07 08:18:32;;;;;;;2.50;0.60;;;;;;;;;;4995468;28;20415;-68
2022/09/07 08:21:01;;;;;;;3.38;0.77;;;;;;;;;;4996172;28;20057;-69
2022/09/07 08:23:29;;;;;;;3.42;0.57;;;;;;;;;;4994213;28;20022;-68
2022/09/07 08:26:00;;;;;;;4.70;0.95;;;;;;;;;;4994174;28;20026;-68
2022/09/07 08:28:29;;;;;;;4.03;0.68;;;;;;;;;;4994215;28;20018;-68
2022/09/07 08:30:56;;;;;;;4.03;0.80;;;;;;;;;;4994428;28;20041;-68
2022/09/07 08:33:24;;;;;;;3.85;0.70;;;;;;;;;;4994153;28;20482;-69
2022/09/07 08:35:58;;;;;;;4.78;0.52;;;;;;;;;;4994145;28;20395;-69
2022/09/07 08:38:25;;;;;;;4.72;1.20;;;;;;;;;;4992912;28;20049;-69
2022/09/07 08:40:53;;;;;;;2.30;0.65;;;;;;;;;;4995531;28;20490;-69
2022/09/07 08:43:23;;;;;;;2.25;0.60;;;;;;;;;;4996109;28;20368;-68
2022/09/07 08:45:56;;;;;;;3.03;0.73;;;;;;;;;;4995694;28;20040;-68
2022/09/07 08:48:28;;;;;;;3.25;0.65;;;;;;;;;;4996148;28;20019;-67
2022/09/07 08:50:59;;;;;;;1.55;0.63;;;;;;;;;;4995869;28;20018;-67
2022/09/07 08:53:27;;;;;;;3.90;0.50;;;;;;;;;;4995883;28;20027;-67
2022/09/07 08:56:09;;;;;;;1.60;0.50;;;;;;;;;;4995562;28;20368;-68
2022/09/07 08:58:36;;;;;;;4.57;1.17;;;;;;;;;;4994777;28;20019;-68
2022/09/07 09:01:09;;;;;;;1.67;0.60;;;;;;;;;;4994189;28;20027;-68
2022/09/07 09:03:36;;;;;;;2.88;0.77;;;;;;;;;;4993563;28;20586;-68
2022/09/07 09:06:21;;;;;;;2.05;0.60;;;;;;;;;;4994886;28;20426;-68
2022/09/07 09:08:51;;;;;;;3.00;0.52;;;;;;;;;;4993998;28;20502;-67
2022/09/07 09:11:24;;;;;;;3.92;1.00;;;;;;;;;;4993861;28;20022;-67
2022/09/07 09:13:58;;;;;;;3.20;1.30;;;;;;;;;;4995650;28;20077;-68
2022/09/07 09:16:34;;;;;;;4.25;0.98;;;;;;;;;;4995347;28;20022;-68
2022/09/07 09:19:07;;;;;;;4.93;1.00;;;;;;;;;;4993921;28;20088;-68
2022/09/07 09:21:35;;;;;;;2.38;0.60;;;;;;;;;;4995509;28;20027;-68
2022/09/07 09:24:11;;;;;;;4.60;0.68;;;;;;;;;;4993375;28;20038;-68
2022/09/07 09:26:39;;;;;;;4.93;0.98;;;;;;;;;;4994813;28;20480;-67
2022/09/07 09:29:17;;;;;;;3.83;0.70;;;;;;;;;;4995062;28;20475;-68
2022/09/07 09:31:44;;;;;;;4.47;1.10;;;;;;;;;;4995225;28;20022;-68
2022/09/07 09:34:11;;;;;;;7.07;0.98;;;;;;;;;;4993077;28;20056;-68
2022/09/07 09:36:45;;;;;;;4.00;0.95;;;;;;;;;;4991858;28;20391;-68
2022/09/07 09:39:30;;;;;;;5.15;1.15;;;;;;;;;;4992988;28;20034;-68
2022/09/07 09:42:20;;;;;;;3.13;0.70;;;;;;;;;;4991636;28;20046;-68
2022/09/07 09:44:48;;;;;;;7.40;0.85;;;;;;;;;;4989869;28;20038;-69
2022/09/07 09:47:36;;;;;;;3.28;0.70;;;;;;;;;;4991586;28;20042;-69
2022/09/07 09:50:06;;;;;;;2.42;0.70;;;;;;;;;;4994763;28;20049;-69
2022/09/07 09:52:35;;;;;;;4.00;0.88;;;;;;;;;;4994448;28;20070;-69
2022/09/07 09:55:05;;;;;;;3.58;1.02;;;;;;;;;;4993141;28;20097;-67
2022/09/07 09:57:49;;;;;;;5.70;1.00;;;;;;;;;;4994344;28;20030;-67
2022/09/07 10:00:22;;;;;;;10.10;1.23;;;;;;;;;;4993053;28;20030;-68
2022/09/07 10:03:00;;;;;;;5.47;1.02;;;;;;;;;;4994616;28;20022;-68
2022/09/07 10:05:33;;;;;;;4.43;0.88;;;;;;;;;;4994139;28;20380;-68
2022/09/07 10:08:00;;;;;;;4.88;0.85;;;;;;;;;;4994474;28;20435;-69
2022/09/07 10:10:30;;;;;;;2.78;0.73;;;;;;;;;;4994275;28;20458;-68
2022/09/07 10:12:57;;;;;;;3.97;0.85;;;;;;;;;;4994410;28;20479;-68
2022/09/07 10:15:37;;;;;;;3.22;0.70;;;;;;;;;;4994494;28;20050;-68
2022/09/07 10:18:05;;;;;;;2.00;0.60;;;;;;;;;;4994541;28;20022;-67
2022/09/07 10:20:37;;;;;;;3.67;0.60;;;;;;;;;;4992849;28;20130;-67
2022/09/07 10:23:05;;;;;;;5.22;0.70;;;;;;;;;;4994028;28;20033;-68
2022/09/07 10:25:40;;;;;;;2.70;0.73;;;;;;;;;;4994069;28;20022;-69
2022/09/07 10:28:07;;;;;;;4.43;0.55;;;;;;;;;;4994263;28;20450;-68
2022/09/07 10:30:52;;;;;;;5.10;0.70;;;;;;;;;;4992329;28;20022;-68
2022/09/07 10:33:37;;;;;;;2.63;0.82;;;;;;;;;;4992916;28;20026;-67
2022/09/07 10:36:07;;;;;;;3.90;0.98;;;;;;;;;;4993878;28;20030;-67
2022/09/07 10:38:37;;;;;;;4.60;0.50;;;;;;;;;;4994150;28;20031;-67
2022/09/07 10:41:09;;;;;;;4.68;0.50;;;;;;;;;;4993979;28;20029;-68
2022/09/07 10:43:43;;;;;;;3.90;0.77;;;;;;;;;;4993870;28;20022;-68
2022/09/07 10:46:28;;;;;;;1.85;0.40;;;;;;;;;;4993802;28;20026;-68
2022/09/07 10:48:58;;;;;;;6.60;1.52;;;;;;;;;;4993818;28;20023;-67
2022/09/07 10:51:36;;;;;;;2.47;0.50;;;;;;;;;;4993821;28;20116;-67
2022/09/07 10:54:21;;;;;;;2.80;0.43;;;;;;;;;;4993701;28;20073;-67
2022/09/07 10:56:57;;;;;;;2.40;0.50;;;;;;;;;;4992339;28;20096;-69
2022/09/07 10:59:30;;;;;;;2.70;0.57;;;;;;;;;;4992386;28;20030;-68
2022/09/07 11:02:15;;;;;;;3.78;0.57;;;;;;;;;;4993183;28;20026;-69
2022/09/07 11:04:46;;;;;;;2.63;0.60;;;;;;;;;;4992166;28;20023;-69
2022/09/07 11:07:31;;;;;;;3.67;0.68;;;;;;;;;;4993243;28;20046;-67
2022/09/07 11:09:58;;;;;;;3.92;0.63;;;;;;;;;;4993557;28;20022;-68
2022/09/07 11:12:34;;;;;;;3.92;0.40;;;;;;;;;;4992756;28;20458;-68
2022/09/07 11:15:10;;;;;;;4.53;0.63;;;;;;;;;;4992809;28;20039;-67
2022/09/07 11:17:47;;;;;;;3.47;0.50;;;;;;;;;;4993845;28;20023;-68
2022/09/07 11:20:21;;;;;;;3.28;0.50;;;;;;;;;;4993702;28;20085;-68
2022/09/07 11:23:07;;;;;;;3.78;0.50;;;;;;;;;;4992082;28;20058;-68
2022/09/07 11:25:42;;;;;;;3.15;0.45;;;;;;;;;;4992124;28;20018;-67
2022/09/07 11:28:09;;;;;;;3.92;0.40;;;;;;;;;;4993530;28;20046;-68
2022/09/07 11:30:57;;;;;;;4.43;0.57;;;;;;;;;;4992087;28;20022;-68
2022/09/07 11:33:26;;;;;;;4.88;0.50;;;;;;;;;;4993234;28;20034;-68
2022/09/07 11:35:57;;;;;;;3.47;0.77;;;;;;;;;;4992807;28;20023;-68
2022/09/07 11:38:27;;;;;;;;;;;;;;;;;;4992596;28;20475;-68
2022/09/07 11:41:12;;;;;;;6.35;0.93;;;;;;;;;;4993178;28;19913;-67
2022/09/07 11:44:00;;;;;;;4.40;0.70;;;;;;;;;;4993336;28;20026;-68
2022/09/07 11:46:40;;;;;;;5.95;0.80;;;;;;;;;;4993414;28;20076;-68
2022/09/07 11:49:34;;;;;;;5.25;0.82;;;;;;;;;;4992709;28;20034;-68
2022/09/07 11:52:19;;;;;;;4.78;0.70;;;;;;;;;;4991578;28;20395;-68
2022/09/07 11:54:56;;;;;;;4.95;0.68;;;;;;;;;;4993425;28;20033;-68
2022/09/07 11:57:39;;;;;;;3.97;0.90;;;;;;;;;;4993323;28;20030;-68
2022/09/07 12:00:09;;;;;;;3.88;0.52;;;;;;;;;;4994391;28;20483;-68
2022/09/07 12:02:55;;;;;;;7.47;0.82;;;;;;;;;;4996803;28;20023;-68
2022/09/07 12:05:22;;;;;;;3.38;0.65;;;;;;;;;;4996383;28;20050;-68
2022/09/07 12:07:55;;;;;;;4.47;0.80;;;;;;;;;;4996808;28;20027;-68
2022/09/07 12:10:31;;;;;;;3.80;0.90;;;;;;;;;;4994086;28;20128;-69
2022/09/07 12:12:58;;;;;;;5.00;0.90;;;;;;;;;;4994027;28;20085;-69
2022/09/07 12:15:37;;;;;;;5.28;0.80;;;;;;;;;;4995306;28;20037;-69
2022/09/07 12:18:20;;;;;;;4.60;0.75;;;;;;;;;;4993868;28;20034;-69
2022/09/07 12:20:48;;;;;;;4.45;0.57;;;;;;;;;;4994941;28;20487;-69
2022/09/07 12:23:15;;;;;;;2.35;0.52;;;;;;;;;;4994796;28;20030;-69
2022/09/07 12:25:43;;;;;;;3.33;0.65;;;;;;;;;;4995954;28;20364;-69
2022/09/07 12:28:17;;;;;;;3.80;0.82;;;;;;;;;;4994902;28;20048;-69
2022/09/07 12:30:47;;;;;;;4.40;0.80;;;;;;;;;;4996184;28;20076;-69
2022/09/07 12:33:22;;;;;;;5.95;1.02;;;;;;;;;;4994836;28;20026;-68
2022/09/07 12:35:49;;;;;;;5.80;0.82;;;;;;;;;;4996240;28;20386;-68
2022/09/07 12:38:19;;;;;;;3.97;0.90;;;;;;;;;;4994636;28;20423;-68
2022/09/07 12:41:03;;;;;;;4.88;0.98;;;;;;;;;;4996111;28;20490;-68
2022/09/07 12:43:34;;;;;;;7.20;0.77;;;;;;;;;;4996102;28;20102;-68
2022/09/07 12:46:02;;;;;;;7.32;1.05;;;;;;;;;;4995850;28;20023;-68
2022/09/07 12:49:07;;;;;;;3.17;0.47;;;;;;;;;;4994496;28;20386;-69
2022/09/07 12:51:34;;;;;;;4.10;0.88;;;;;;;;;;4974171;28;20125;-68
2022/09/07 12:54:18;;;;;;;2.88;0.80;;;;;;;;;;4972173;28;20595;-69
2022/09/07 12:56:59;;;;;;;6.63;1.23;;;;;;;;;;4984929;28;20082;-68
2022/09/07 12:59:48;;;;;;;2.53;0.63;;;;;;;;;;4993714;28;20030;-69
2022/09/07 13:02:33;;;;;;;7.15;0.80;;;;;;;;;;4993717;28;20037;-68
2022/09/07 13:05:18;;;;;;;4.82;1.05;;;;;;;;;;4993324;28;20026;-69
2022/09/07 13:07:52;;;;;;;5.40;0.75;;;;;;;;;;4993778;28;20089;-68
2022/09/07 13:10:30;;;;;;;5.43;0.88;;;;;;;;;;4995241;28;20456;-68
2022/09/07 13:13:02;;;;;;;6.93;0.85;;;;;;;;;;4995330;28;20018;-68
2022/09/07 13:15:39;;;;;;;7.63;1.35;;;;;;;;;;4994130;28;20074;-68
2022/09/07 13:18:14;;;;;;;5.45;0.73;;;;;;;;;;4995294;28;20026;-69
2022/09/07 13:20:41;;;;;;;3.72;0.77;;;;;;;;;;4995314;28;20097;-68
2022/09/07 13:23:08;;;;;;;4.78;0.70;;;;;;;;;;4995126;28;20025;-67
2022/09/07 13:25:38;;;;;;;7.07;1.00;;;;;;;;;;4993770;28;20106;-68
2022/09/07 13:28:13;;;;;;;2.83;0.65;;;;;;;;;;4995241;28;20030;-67
2022/09/07 13:31:01;;;;;;;5.18;1.10;;;;;;;;;;4995288;28;20141;-67
2022/09/07 13:33:28;;;;;;;10.32;1.00;;;;;;;;;;4994960;28;20022;-67
2022/09/07 13:36:01;;;;;;;4.03;0.80;;;;;;;;;;4993870;28;20116;-68
2022/09/07 13:38:29;;;;;;;2.85;0.70;;;;;;;;;;4992326;28;20446;-68
2022/09/07 13:40:59;;;;;;;5.95;0.63;;;;;;;;;;4994666;28;20502;-67
2022/09/07 13:43:26;;;;;;;3.53;0.73;;;;;;;;;;4994852;28;20050;-67
2022/09/07 13:45:53;;;;;;;4.43;0.93;;;;;;;;;;4994697;28;20018;-67
2022/09/07 13:48:30;;;;;;;4.97;0.73;;;;;;;;;;4994729;28;20022;-67
2022/09/07 13:51:02;;;;;;;3.97;1.02;;;;;;;;;;4994658;28;20033;-67
2022/09/07 13:53:45;;;;;;;5.18;0.70;;;;;;;;;;4993323;28;20095;-67
2022/09/07 13:56:16;;;;;;;5.15;0.95;;;;;;;;;;4994772;28;20086;-67
2022/09/07 13:58:46;;;;;;;7.50;1.00;;;;;;;;;;4994719;28;20022;-67
2022/09/07 14:01:13;;;;;;;4.10;0.65;;;;;;;;;;4994452;28;20491;-67
2022/09/07 14:03:54;;;;;;;5.22;0.95;;;;;;;;;;4994354;28;20026;-68
2022/09/07 14:06:21;;;;;;;3.55;0.80;;;;;;;;;;4994226;28;20050;-67
2022/09/07 14:08:50;;;;;;;6.00;0.90;;;;;;;;;;4994351;28;20026;-67
2022/09/07 14:11:21;;;;;;;7.50;0.85;;;;;;;;;;4994539;28;20056;-67
2022/09/07 14:14:08;;;;;;;6.18;1.83;;;;;;;;;;4994263;28;20026;-68
2022/09/07 14:16:36;;;;;;;6.18;1.02;;;;;;;;;;4994424;28;20030;-67
2022/09/07 14:19:09;;;;;;;6.20;1.05;;;;;;;;;;4994073;28;20037;-67
2022/09/07 14:21:36;;;;;;;7.22;1.08;;;;;;;;;;4993601;28;20031;-68
2022/09/07 14:24:05;;;;;;;6.82;1.25;;;;;;;;;;4994143;28;20019;-68
2022/09/07 14:26:32;;;;;;;6.53;1.20;;;;;;;;;;4994008;28;20022;-67
2022/09/07 14:29:00;;;;;;;7.07;1.20;;;;;;;;;;4992979;28;20022;-68
2022/09/07 14:31:27;;;;;;;6.90;0.90;;;;;;;;;;4993543;28;20098;-67
2022/09/07 14:33:55;;;;;;;5.47;0.90;;;;;;;;;;4993977;28;20422;-68
2022/09/07 14:36:29;;;;;;;5.10;0.90;;;;;;;;;;4993755;28;20026;-68
2022/09/07 14:38:56;;;;;;;8.02;1.17;;;;;;;;;;4992609;28;20032;-67
2022/09/07 14:41:27;;;;;;;8.07;1.00;;;;;;;;;;4993876;28;20393;-67
2022/09/07 14:43:59;;;;;;;4.32;0.82;;;;;;;;;;4992249;28;20023;-68
2022/09/07 14:46:35;;;;;;;9.00;1.48;;;;;;;;;;4993665;28;20022;-67
2022/09/07 14:49:06;;;;;;;7.85;1.30;;;;;;;;;;4994024;28;20022;-67
2022/09/07 14:51:34;;;;;;;5.88;1.23;;;;;;;;;;4993936;28;20029;-68
2022/09/07 14:54:06;;;;;;;7.45;1.23;;;;;;;;;;4993727;28;20053;-68
2022/09/07 14:56:40;;;;;;;8.40;1.92;;;;;;;;;;4993665;28;20033;-68
2022/09/07 14:59:26;;;;;;;6.13;1.40;;;;;;;;;;4993532;28;20447;-67
2022/09/07 15:02:13;;;;;;;7.85;1.42;;;;;;;;;;4992220;28;20061;-68
2022/09/07 15:04:40;;;;;;;5.30;1.00;;;;;;;;;;4993396;28;20372;-68
2022/09/07 15:07:25;;;;;;;6.72;1.20;;;;;;;;;;4993325;28;20422;-67